Time;durP1;ratioP1;P1;durP2;ratioP2;P2;SDS_P1;SDS_P2;PMS_P1;PMS_P2;Temp;Humidity;BMP_temperature;BMP_pressure;BME280_temperature;BME280_humidity;BME280_pressure;Samples;Min_cycle;Max_cycle;Signal;HPM_P1;HPM_P2
2023/08/25 00:01:13;;;;;;;14.13;5.72;;;17.50;99.90;;;;;;4998364;28;20104;-68
2023/08/25 00:03:38;;;;;;;11.40;5.45;;;17.50;99.90;;;;;;5001680;28;20465;-68
2023/08/25 00:06:05;;;;;;;7.75;5.22;;;17.50;99.90;;;;;;5000887;28;20030;-68
2023/08/25 00:08:30;;;;;;;12.32;5.40;;;17.50;99.90;;;;;;5003080;28;20021;-68
2023/08/25 00:10:56;;;;;;;9.07;6.20;;;17.50;99.90;;;;;;4998344;28;20407;-68
2023/08/25 00:13:21;;;;;;;11.60;5.63;;;17.40;99.90;;;;;;5003664;28;20042;-68
2023/08/25 00:15:49;;;;;;;9.65;6.20;;;17.50;99.90;;;;;;4994438;28;20652;-68
2023/08/25 00:18:14;;;;;;;12.32;6.10;;;17.50;99.90;;;;;;4999837;28;20081;-66
2023/08/25 00:20:41;;;;;;;11.15;5.97;;;17.40;99.90;;;;;;4997384;28;20109;-67
2023/08/25 00:23:07;;;;;;;11.48;5.90;;;17.40;99.90;;;;;;4997576;28;20028;-68
2023/08/25 00:25:33;;;;;;;14.45;5.47;;;17.50;99.90;;;;;;5001134;28;20026;-68
2023/08/25 00:27:59;;;;;;;11.25;6.13;;;17.50;99.90;;;;;;5002509;28;20044;-68
2023/08/25 00:30:25;;;;;;;13.52;6.43;;;17.50;99.90;;;;;;4987617;28;20038;-68
2023/08/25 00:32:51;;;;;;;11.52;6.60;;;17.50;99.90;;;;;;5002608;28;20057;-67
2023/08/25 00:35:16;;;;;;;10.52;5.30;;;17.50;99.90;;;;;;4998942;28;20102;-68
2023/08/25 00:37:42;;;;;;;14.45;6.55;;;17.50;99.90;;;;;;4998302;28;20048;-68
2023/08/25 00:40:08;;;;;;;15.68;6.90;;;17.50;99.90;;;;;;4999837;28;20037;-68
2023/08/25 00:42:34;;;;;;;12.40;6.28;;;17.60;99.90;;;;;;5005557;28;20038;-68
2023/08/25 00:44:59;;;;;;;15.38;6.00;;;17.60;99.90;;;;;;5003919;28;20046;-68
2023/08/25 00:47:25;;;;;;;10.55;6.90;;;17.60;99.90;;;;;;4999297;28;20041;-68
2023/08/25 00:49:52;;;;;;;8.98;6.05;;;17.60;99.90;;;;;;5004356;28;20516;-68
2023/08/25 00:52:19;;;;;;;9.55;6.50;;;17.50;99.90;;;;;;5004278;28;21233;-66
2023/08/25 00:54:46;;;;;;;9.20;6.05;;;17.50;99.90;;;;;;5016164;28;20033;-67
2023/08/25 00:57:12;;;;;;;9.40;6.90;;;17.50;99.90;;;;;;4975300;28;20056;-67
2023/08/25 00:59:37;;;;;;;9.88;5.78;;;17.50;99.90;;;;;;5001592;28;20033;-67
2023/08/25 01:02:04;;;;;;;8.73;5.55;;;17.50;99.90;;;;;;4994490;28;20034;-67
2023/08/25 01:04:31;;;;;;;7.53;5.28;;;17.50;99.90;;;;;;5001817;28;20027;-67
2023/08/25 01:06:57;;;;;;;10.38;6.15;;;17.50;99.90;;;;;;5002607;28;20046;-67
2023/08/25 01:09:23;;;;;;;10.90;6.35;;;17.50;99.90;;;;;;5002131;28;20518;-67
2023/08/25 01:12:01;;;;;;;13.30;6.93;;;17.40;99.90;;;;;;5002228;28;20495;-68
2023/08/25 01:15:04;;;;;;;10.77;5.95;;;17.40;99.90;;;;;;4999920;28;20507;-68
2023/08/25 01:17:42;;;;;;;12.75;5.82;;;17.40;99.90;;;;;;5001295;28;20038;-68
2023/08/25 01:20:09;;;;;;;9.07;5.75;;;17.30;99.90;;;;;;5006724;28;20022;-68
2023/08/25 01:22:37;;;;;;;6.35;5.15;;;17.30;99.90;;;;;;4995276;28;20515;-68
2023/08/25 01:25:28;;;;;;;13.68;5.88;;;17.30;99.90;;;;;;5002972;28;20041;-67
2023/08/25 01:27:58;;;;;;;13.20;6.70;;;17.20;99.90;;;;;;4998406;28;20033;-67
2023/08/25 01:30:26;;;;;;;8.15;5.15;;;17.20;99.90;;;;;;5002037;28;20030;-67
2023/08/25 01:32:53;;;;;;;12.70;5.38;;;17.20;99.90;;;;;;5002803;28;20036;-68
2023/08/25 01:35:27;;;;;;;12.18;6.15;;;17.10;99.90;;;;;;5002230;28;20038;-68
2023/08/25 01:38:22;;;;;;;9.48;4.90;;;17.10;99.90;;;;;;5002054;28;20117;-67
2023/08/25 01:40:56;;;;;;;8.55;5.22;;;17.10;99.90;;;;;;5004180;28;20033;-67
2023/08/25 01:43:26;;;;;;;9.40;5.80;;;17.00;99.90;;;;;;4997726;28;20030;-67
2023/08/25 01:45:54;;;;;;;7.82;5.72;;;17.00;99.90;;;;;;5005350;28;20030;-67
2023/08/25 01:48:20;;;;;;;9.05;5.90;;;17.00;99.90;;;;;;5004785;28;20030;-67
2023/08/25 01:50:46;;;;;;;11.52;6.22;;;17.00;99.90;;;;;;5004201;28;20040;-67
2023/08/25 01:53:12;;;;;;;8.70;5.28;;;17.00;99.90;;;;;;5002389;28;20034;-67
2023/08/25 01:55:38;;;;;;;10.10;5.20;;;17.00;99.90;;;;;;5000244;28;20030;-67
2023/08/25 01:58:04;;;;;;;9.77;4.65;;;17.00;99.90;;;;;;4976056;28;20041;-67
2023/08/25 02:00:29;;;;;;;9.45;5.50;;;17.00;99.90;;;;;;5000204;28;20026;-67
2023/08/25 02:02:55;;;;;;;9.50;5.28;;;17.00;99.90;;;;;;5001686;28;20034;-67
2023/08/25 02:05:22;;;;;;;9.88;5.68;;;17.00;99.90;;;;;;5002234;28;20038;-68
2023/08/25 02:07:47;;;;;;;10.40;5.72;;;17.00;99.90;;;;;;5000555;28;20061;-67
2023/08/25 02:10:13;;;;;;;8.80;5.80;;;17.00;99.90;;;;;;5000885;28;20076;-67
2023/08/25 02:12:39;;;;;;;10.88;5.10;;;17.00;99.90;;;;;;5001258;28;20038;-67
2023/08/25 02:15:06;;;;;;;10.00;5.82;;;16.90;99.90;;;;;;4996862;28;20137;-67
2023/08/25 02:17:31;;;;;;;11.57;5.25;;;17.00;99.90;;;;;;5004014;28;20042;-67
2023/08/25 02:19:57;;;;;;;10.23;5.75;;;17.00;99.90;;;;;;5002102;28;20030;-67
2023/08/25 02:22:23;;;;;;;9.00;5.90;;;17.10;99.90;;;;;;5003523;28;20033;-67
2023/08/25 02:24:49;;;;;;;8.20;5.53;;;17.10;99.90;;;;;;5003541;28;20056;-66
2023/08/25 02:27:14;;;;;;;8.68;5.65;;;17.10;99.90;;;;;;4998522;28;20038;-67
2023/08/25 02:29:40;;;;;;;8.18;5.78;;;17.10;99.90;;;;;;4998262;28;20053;-68
2023/08/25 02:32:06;;;;;;;7.28;5.35;;;17.10;99.90;;;;;;4986939;28;20515;-67
2023/08/25 02:34:31;;;;;;;8.23;4.93;;;17.10;99.90;;;;;;5003449;28;20034;-67
2023/08/25 02:36:57;;;;;;;10.02;5.55;;;17.00;99.90;;;;;;5002012;28;20033;-67
2023/08/25 02:39:22;;;;;;;8.45;5.68;;;17.10;99.90;;;;;;5004340;28;20573;-67
2023/08/25 02:41:48;;;;;;;9.30;5.82;;;17.10;99.90;;;;;;4999872;28;20022;-67
2023/08/25 02:44:13;;;;;;;8.07;5.25;;;17.10;99.90;;;;;;5001418;28;20164;-67
2023/08/25 02:46:40;;;;;;;7.97;6.10;;;17.10;99.90;;;;;;5001869;28;20042;-67
2023/08/25 02:49:05;;;;;;;7.80;5.50;;;17.00;99.90;;;;;;4997563;28;20033;-66
2023/08/25 02:51:31;;;;;;;12.82;6.32;;;17.00;99.90;;;;;;5000616;28;20037;-67
2023/08/25 02:53:56;;;;;;;15.70;6.35;;;17.00;99.90;;;;;;4996896;28;20037;-67
2023/08/25 02:56:22;;;;;;;11.85;6.35;;;17.00;99.90;;;;;;4999441;28;20045;-67
2023/08/25 02:58:47;;;;;;;9.25;5.82;;;17.00;99.90;;;;;;4970448;28;20045;-67
2023/08/25 03:01:13;;;;;;;14.55;5.78;;;17.00;99.90;;;;;;5001385;28;20022;-67
2023/08/25 03:03:39;;;;;;;13.52;6.65;;;16.90;99.90;;;;;;5001782;28;20061;-67
2023/08/25 03:06:05;;;;;;;9.07;6.05;;;16.90;99.90;;;;;;5012911;28;20045;-67
2023/08/25 03:08:31;;;;;;;11.90;6.10;;;16.90;99.90;;;;;;4999226;28;20026;-67
2023/08/25 03:10:56;;;;;;;11.38;6.00;;;16.90;99.90;;;;;;4996944;28;20468;-67
2023/08/25 03:13:22;;;;;;;9.80;6.25;;;16.90;99.90;;;;;;4999716;28;20776;-66
2023/08/25 03:15:52;;;;;;;9.95;5.75;;;16.90;99.90;;;;;;5001118;28;20052;-65
2023/08/25 03:18:17;;;;;;;10.45;5.90;;;16.90;99.90;;;;;;5000168;28;20068;-66
2023/08/25 03:20:43;;;;;;;12.95;5.65;;;16.90;99.90;;;;;;4998372;28;20050;-65
2023/08/25 03:23:08;;;;;;;11.60;5.82;;;16.90;99.90;;;;;;4999025;28;20041;-66
2023/08/25 03:25:37;;;;;;;11.75;6.13;;;16.90;99.90;;;;;;4996576;28;20772;-66
2023/08/25 03:28:03;;;;;;;10.25;6.53;;;16.80;99.90;;;;;;4996869;28;20043;-66
2023/08/25 03:30:29;;;;;;;9.85;6.15;;;16.80;99.90;;;;;;4998227;28;20456;-66
2023/08/25 03:32:55;;;;;;;8.70;6.13;;;16.80;99.90;;;;;;5002945;28;20062;-65
2023/08/25 03:35:20;;;;;;;9.98;6.68;;;16.70;99.90;;;;;;5004702;28;21240;-66
2023/08/25 03:37:46;;;;;;;9.73;5.70;;;16.70;99.90;;;;;;5003125;28;20037;-65
2023/08/25 03:40:11;;;;;;;9.38;6.18;;;16.70;99.90;;;;;;5005256;28;20116;-66
2023/08/25 03:42:37;;;;;;;8.10;5.85;;;16.70;99.90;;;;;;5003136;28;20041;-66
2023/08/25 03:45:04;;;;;;;8.50;6.07;;;16.70;99.90;;;;;;5001676;28;20073;-64
2023/08/25 03:47:30;;;;;;;13.93;6.50;;;16.70;99.90;;;;;;5006658;28;20022;-65
2023/08/25 03:49:55;;;;;;;13.00;6.28;;;16.70;99.90;;;;;;5007147;28;20495;-66
2023/08/25 03:52:22;;;;;;;9.30;6.65;;;16.70;99.90;;;;;;5005941;28;20495;-66
2023/08/25 03:54:47;;;;;;;8.75;5.82;;;16.70;99.90;;;;;;5007580;28;20390;-66
2023/08/25 03:57:13;;;;;;;8.80;6.10;;;16.60;99.90;;;;;;4972890;28;20030;-66
2023/08/25 03:59:38;;;;;;;10.52;6.15;;;16.70;99.90;;;;;;5005857;28;20546;-66
2023/08/25 04:02:04;;;;;;;11.95;6.22;;;16.70;99.90;;;;;;4999066;28;20033;-66
2023/08/25 04:04:33;;;;;;;7.68;5.88;;;16.70;99.90;;;;;;4990954;28;20028;-66
2023/08/25 04:06:59;;;;;;;8.60;6.05;;;16.70;99.90;;;;;;4984628;28;20034;-66
2023/08/25 04:09:25;;;;;;;15.25;6.40;;;16.70;99.90;;;;;;4986499;28;20030;-66
2023/08/25 04:11:53;;;;;;;13.00;6.72;;;16.70;99.90;;;;;;5000971;28;20030;-66
2023/08/25 04:14:18;;;;;;;7.57;5.72;;;16.70;99.90;;;;;;4987798;28;20034;-66
2023/08/25 04:16:44;;;;;;;15.45;6.32;;;16.80;99.90;;;;;;4990945;28;20027;-66
2023/08/25 04:19:09;;;;;;;12.63;5.25;;;16.80;99.90;;;;;;4992013;28;20025;-66
2023/08/25 04:21:35;;;;;;;9.05;5.63;;;16.80;99.90;;;;;;4990933;28;20081;-66
2023/08/25 04:24:01;;;;;;;9.85;5.63;;;16.80;99.90;;;;;;4992148;28;20034;-66
2023/08/25 04:26:26;;;;;;;7.65;5.35;;;16.90;99.90;;;;;;4993281;28;20030;-65
2023/08/25 04:28:52;;;;;;;8.35;5.97;;;16.90;99.90;;;;;;4992386;28;20062;-66
2023/08/25 04:31:17;;;;;;;8.55;5.55;;;16.90;99.90;;;;;;4991310;28;22064;-65
2023/08/25 04:33:43;;;;;;;8.30;5.68;;;17.00;99.90;;;;;;4989997;28;20448;-67
2023/08/25 04:36:09;;;;;;;12.65;5.80;;;17.00;99.90;;;;;;4991658;28;20504;-66
2023/08/25 04:38:34;;;;;;;11.80;5.80;;;17.00;99.90;;;;;;4992024;28;20037;-66
2023/08/25 04:41:00;;;;;;;9.25;5.68;;;17.00;99.90;;;;;;4993022;28;20018;-66
2023/08/25 04:43:25;;;;;;;7.85;6.25;;;17.20;99.90;;;;;;4991069;28;20022;-66
2023/08/25 04:45:51;;;;;;;9.52;5.22;;;17.20;99.90;;;;;;4996675;28;20083;-66
2023/08/25 04:48:17;;;;;;;9.07;5.63;;;17.30;99.90;;;;;;4992031;28;20468;-65
2023/08/25 04:50:43;;;;;;;10.80;5.28;;;17.30;99.90;;;;;;4990743;28;20038;-65
2023/08/25 04:53:08;;;;;;;15.68;5.72;;;17.40;99.90;;;;;;4983770;28;20042;-66
2023/08/25 04:55:34;;;;;;;13.18;4.50;;;17.40;99.90;;;;;;4986352;28;20387;-67
2023/08/25 04:58:00;;;;;;;9.27;4.47;;;17.50;99.90;;;;;;4988426;28;20502;-66
2023/08/25 05:00:26;;;;;;;7.00;4.78;;;17.50;99.90;;;;;;4985410;28;20034;-66
2023/08/25 05:02:52;;;;;;;7.05;4.93;;;17.50;99.90;;;;;;4988659;28;20022;-67
2023/08/25 05:05:18;;;;;;;9.88;5.00;;;17.60;99.90;;;;;;4993002;28;20027;-66
2023/08/25 05:07:43;;;;;;;8.15;4.68;;;17.50;99.90;;;;;;4987240;28;20028;-67
2023/08/25 05:10:09;;;;;;;8.68;5.00;;;17.50;99.90;;;;;;4985141;28;20081;-67
2023/08/25 05:12:35;;;;;;;10.27;5.18;;;17.50;99.90;;;;;;4982755;28;20428;-66
2023/08/25 05:15:02;;;;;;;9.35;4.47;;;17.50;99.90;;;;;;4986215;28;20030;-66
2023/08/25 05:17:28;;;;;;;7.30;4.95;;;17.50;99.90;;;;;;4987480;28;20027;-67
2023/08/25 05:19:53;;;;;;;9.00;5.20;;;17.50;99.90;;;;;;4988291;28;20088;-66
2023/08/25 05:22:19;;;;;;;8.50;5.05;;;17.60;99.90;;;;;;4986101;28;20492;-66
2023/08/25 05:24:45;;;;;;;9.77;5.05;;;17.60;99.90;;;;;;4985513;28;20026;-66
2023/08/25 05:27:10;;;;;;;7.18;4.40;;;17.60;99.90;;;;;;4984573;28;20093;-66
2023/08/25 05:29:36;;;;;;;10.40;4.97;;;17.70;99.90;;;;;;4976679;28;20046;-66
2023/08/25 05:32:02;;;;;;;9.20;4.90;;;17.70;99.90;;;;;;4985741;28;20039;-67
2023/08/25 05:34:28;;;;;;;11.18;5.28;;;17.80;99.90;;;;;;4978931;28;20496;-66
2023/08/25 05:36:54;;;;;;;6.05;4.32;;;17.90;99.90;;;;;;4978094;28;20034;-66
2023/08/25 05:39:20;;;;;;;6.70;4.82;;;18.00;99.90;;;;;;4977145;28;20489;-66
2023/08/25 05:41:46;;;;;;;8.50;4.40;;;18.10;99.90;;;;;;4980680;28;20117;-66
2023/08/25 05:44:12;;;;;;;9.32;4.55;;;18.20;99.90;;;;;;4981268;28;20026;-65
2023/08/25 05:46:39;;;;;;;5.45;3.88;;;18.30;99.90;;;;;;4979296;28;20054;-66
2023/08/25 05:49:05;;;;;;;6.60;3.97;;;18.40;99.90;;;;;;4985426;28;20026;-63
2023/08/25 05:51:31;;;;;;;8.80;4.30;;;18.50;99.90;;;;;;4979093;28;20448;-66
2023/08/25 05:53:56;;;;;;;7.90;3.80;;;18.60;99.90;;;;;;4984278;28;20112;-65
2023/08/25 05:56:22;;;;;;;9.32;3.88;;;18.70;99.90;;;;;;4991243;28;20395;-65
2023/08/25 05:58:48;;;;;;;5.68;3.55;;;19.00;99.90;;;;;;5003728;28;20034;-66
2023/08/25 06:01:14;;;;;;;5.93;3.50;;;19.40;99.90;;;;;;4998491;28;20141;-64
2023/08/25 06:03:40;;;;;;;4.93;3.75;;;19.70;99.90;;;;;;5002859;28;20049;-65
2023/08/25 06:06:06;;;;;;;5.25;2.60;;;20.10;99.90;;;;;;4993801;28;20026;-66
2023/08/25 06:08:32;;;;;;;4.53;2.80;;;20.40;99.90;;;;;;4995608;28;20026;-65
2023/08/25 06:10:58;;;;;;;3.70;2.50;;;20.90;99.90;;;;;;5000080;28;20533;-66
2023/08/25 06:13:24;;;;;;;5.55;2.65;;;21.30;99.90;;;;;;5003182;28;20058;-66
2023/08/25 06:15:49;;;;;;;5.32;2.65;;;21.20;99.90;;;;;;4999650;28;20057;-66
2023/08/25 06:18:15;;;;;;;8.20;3.03;;;21.10;99.90;;;;;;4998647;28;20390;-65
2023/08/25 06:20:42;;;;;;;8.77;3.28;;;20.80;99.90;;;;;;5005121;28;20018;-66
2023/08/25 06:23:08;;;;;;;3.72;2.88;;;20.50;99.90;;;;;;5005440;28;20026;-66
2023/08/25 06:25:34;;;;;;;5.97;3.25;;;20.40;99.90;;;;;;5001888;28;20058;-65
2023/08/25 06:27:59;;;;;;;5.20;3.42;;;20.30;99.90;;;;;;4996752;28;20072;-65
2023/08/25 06:30:32;;;;;;;5.78;3.08;;;20.20;99.90;;;;;;4999338;28;20545;-65
2023/08/25 06:32:58;;;;;;;7.32;3.22;;;20.00;99.90;;;;;;5002842;28;20646;-66
2023/08/25 06:35:24;;;;;;;4.05;3.35;;;19.90;99.90;;;;;;4999230;28;20041;-66
2023/08/25 06:37:50;;;;;;;7.30;3.40;;;19.80;99.90;;;;;;5004303;28;20022;-64
2023/08/25 06:40:15;;;;;;;6.43;3.90;;;19.60;99.90;;;;;;5000089;28;20511;-65
2023/08/25 06:42:41;;;;;;;5.60;3.47;;;19.60;99.90;;;;;;5001543;28;20038;-66
2023/08/25 06:45:07;;;;;;;7.10;3.78;;;19.60;99.90;;;;;;5000073;28;20038;-65
2023/08/25 06:47:34;;;;;;;5.18;3.00;;;19.60;99.90;;;;;;5005566;28;20033;-66
2023/08/25 06:50:00;;;;;;;7.00;3.70;;;19.60;99.90;;;;;;5002427;28;20101;-66
2023/08/25 06:52:26;;;;;;;5.78;3.67;;;19.70;99.90;;;;;;5001328;28;20117;-66
2023/08/25 06:54:51;;;;;;;6.80;3.90;;;19.80;99.90;;;;;;4992651;28;20033;-66
2023/08/25 06:57:17;;;;;;;4.93;3.75;;;19.80;99.90;;;;;;5002042;28;20037;-65
2023/08/25 06:59:42;;;;;;;5.57;3.55;;;19.80;99.90;;;;;;4998792;28;20125;-66
2023/08/25 07:02:08;;;;;;;6.95;3.83;;;19.80;99.90;;;;;;4997966;28;20046;-65
2023/08/25 07:04:34;;;;;;;5.28;3.25;;;19.90;99.90;;;;;;5003823;28;20044;-66
2023/08/25 07:07:00;;;;;;;3.75;2.95;;;20.10;99.90;;;;;;5001760;28;20034;-66
2023/08/25 07:09:27;;;;;;;4.93;3.10;;;20.40;99.90;;;;;;5004149;28;20121;-65
2023/08/25 07:11:52;;;;;;;4.22;2.83;;;20.70;99.90;;;;;;5003507;28;20512;-66
2023/08/25 07:14:18;;;;;;;8.48;3.50;;;20.80;99.90;;;;;;5003031;28;20084;-66
2023/08/25 07:16:43;;;;;;;6.35;3.08;;;21.00;99.90;;;;;;4990685;28;20484;-66
2023/08/25 07:19:09;;;;;;;9.25;3.10;;;21.10;99.90;;;;;;4991290;28;20033;-66
2023/08/25 07:21:35;;;;;;;6.75;3.63;;;20.90;99.90;;;;;;5004091;28;20049;-66
2023/08/25 07:24:00;;;;;;;7.90;3.80;;;20.90;99.90;;;;;;4997569;28;20038;-65
2023/08/25 07:26:28;;;;;;;7.72;3.22;;;20.60;99.90;;;;;;5003254;28;20034;-66
2023/08/25 07:28:54;;;;;;;7.35;3.80;;;20.30;99.90;;;;;;5001411;28;20030;-66
2023/08/25 07:31:19;;;;;;;6.53;4.38;;;20.10;99.90;;;;;;4998384;28;20510;-65
2023/08/25 07:33:45;;;;;;;7.57;4.28;;;20.00;99.90;;;;;;4999895;28;21069;-65
2023/08/25 07:36:10;;;;;;;9.77;4.07;;;19.90;99.90;;;;;;4998176;28;20445;-65
2023/08/25 07:38:36;;;;;;;9.02;4.32;;;19.80;99.90;;;;;;5003396;28;20034;-65
2023/08/25 07:41:02;;;;;;;9.10;4.07;;;19.80;99.90;;;;;;5003613;28;20041;-66
2023/08/25 07:43:28;;;;;;;7.28;4.18;;;19.90;99.90;;;;;;4999971;28;20484;-66
2023/08/25 07:45:54;;;;;;;7.35;3.88;;;19.90;99.90;;;;;;4998966;28;20075;-66
2023/08/25 07:48:21;;;;;;;4.30;3.47;;;20.10;99.90;;;;;;5001789;28;20035;-67
2023/08/25 07:50:47;;;;;;;6.32;3.47;;;20.50;99.90;;;;;;5003276;28;20030;-66
2023/08/25 07:53:13;;;;;;;5.57;3.53;;;21.20;99.90;;;;;;5002344;28;20435;-66
2023/08/25 07:55:40;;;;;;;5.07;2.50;;;21.70;99.90;;;;;;5000441;28;20038;-67
2023/08/25 07:58:06;;;;;;;5.75;2.92;;;22.60;99.90;;;;;;5003369;28;20050;-66
2023/08/25 08:00:32;;;;;;;9.80;2.75;;;23.20;99.90;;;;;;4996829;28;20041;-67
2023/08/25 08:02:58;;;;;;;3.85;2.78;;;23.50;99.90;;;;;;5003679;28;20021;-66
2023/08/25 08:05:24;;;;;;;3.42;2.65;;;23.60;99.90;;;;;;5000918;28;20029;-66
2023/08/25 08:07:49;;;;;;;5.20;3.05;;;23.40;99.90;;;;;;5003354;28;20128;-66
2023/08/25 08:10:15;;;;;;;8.05;3.38;;;23.20;99.90;;;;;;5004181;28;20045;-66
2023/08/25 08:12:42;;;;;;;7.10;3.08;;;23.20;99.90;;;;;;5001047;28;20092;-66
2023/08/25 08:15:08;;;;;;;4.20;2.60;;;23.10;99.90;;;;;;5000142;28;20074;-66
2023/08/25 08:17:34;;;;;;;3.67;2.75;;;23.00;99.90;;;;;;5001735;28;20034;-66
2023/08/25 08:20:00;;;;;;;7.90;3.10;;;22.80;99.90;;;;;;5005797;28;20040;-66
2023/08/25 08:22:27;;;;;;;4.30;3.00;;;22.70;99.90;;;;;;5008789;28;20479;-66
2023/08/25 08:24:53;;;;;;;15.10;3.83;;;22.50;99.90;;;;;;5005358;28;20044;-65
2023/08/25 08:27:19;;;;;;;8.57;3.05;;;22.40;99.90;;;;;;5007368;28;20038;-66
2023/08/25 08:29:46;;;;;;;8.02;3.47;;;22.10;99.90;;;;;;5001596;28;20030;-66
2023/08/25 08:32:13;;;;;;;4.32;3.20;;;21.80;99.90;;;;;;4997672;28;20112;-67
2023/08/25 08:34:39;;;;;;;5.78;3.40;;;21.50;99.90;;;;;;5005966;28;20078;-66
2023/08/25 08:37:08;;;;;;;5.43;4.10;;;21.50;99.90;;;;;;5004475;28;21117;-66
2023/08/25 08:39:33;;;;;;;8.82;3.97;;;21.40;99.90;;;;;;5007752;28;20203;-66
2023/08/25 08:42:01;;;;;;;6.82;3.72;;;21.20;99.90;;;;;;5006333;28;20108;-67
2023/08/25 08:44:29;;;;;;;7.82;3.70;;;21.30;99.90;;;;;;5001910;28;20103;-66
2023/08/25 08:46:57;;;;;;;5.20;3.60;;;21.40;99.90;;;;;;5004768;28;20049;-67
2023/08/25 08:49:26;;;;;;;6.10;3.67;;;21.40;99.90;;;;;;5002450;28;20041;-65
2023/08/25 08:51:53;;;;;;;7.78;4.88;;;21.40;99.90;;;;;;5006188;28;20041;-66
2023/08/25 08:54:19;;;;;;;6.57;3.90;;;21.30;99.90;;;;;;5003541;28;20819;-66
2023/08/25 08:56:46;;;;;;;7.50;3.70;;;21.50;99.90;;;;;;5003412;28;20109;-66
2023/08/25 08:59:12;;;;;;;5.40;3.78;;;21.60;99.90;;;;;;4997690;28;20124;-66
2023/08/25 09:01:41;;;;;;;5.18;3.38;;;21.40;99.90;;;;;;5002496;28;20034;-66
2023/08/25 09:04:08;;;;;;;7.70;3.92;;;21.50;99.90;;;;;;5006239;28;20042;-65
2023/08/25 09:06:37;;;;;;;6.18;3.78;;;21.50;99.90;;;;;;4995698;28;20052;-66
2023/08/25 09:09:05;;;;;;;4.93;3.90;;;21.50;99.90;;;;;;5005934;28;20129;-65
2023/08/25 09:11:32;;;;;;;7.03;4.22;;;21.50;99.90;;;;;;5007380;28;20014;-65
2023/08/25 09:14:03;;;;;;;6.93;4.07;;;21.60;99.90;;;;;;5006475;28;20164;-65
2023/08/25 09:16:34;;;;;;;8.82;4.97;;;22.00;99.90;;;;;;4998453;28;20030;-66
2023/08/25 09:19:04;;;;;;;9.30;4.30;;;22.40;99.90;;;;;;5001409;28;20018;-66
2023/08/25 09:21:31;;;;;;;6.95;3.30;;;23.10;99.90;;;;;;5004765;28;20034;-66
2023/08/25 09:23:59;;;;;;;10.40;4.28;;;24.00;99.90;;;;;;5001164;28;20037;-66
2023/08/25 09:26:26;;;;;;;6.03;3.53;;;24.40;99.90;;;;;;5006211;28;20030;-66
2023/08/25 09:28:53;;;;;;;7.03;3.20;;;24.60;99.90;;;;;;5005525;28;20029;-66
2023/08/25 09:31:26;;;;;;;3.88;2.70;;;24.30;99.90;;;;;;4997616;28;20044;-67
2023/08/25 09:34:02;;;;;;;7.43;3.40;;;23.80;99.90;;;;;;5003930;28;20042;-66
2023/08/25 09:36:29;;;;;;;4.70;2.45;;;23.70;99.90;;;;;;5005009;28;20120;-66
2023/08/25 09:38:55;;;;;;;3.90;2.53;;;24.00;99.90;;;;;;5001895;28;20041;-66
2023/08/25 09:41:24;;;;;;;4.30;2.97;;;24.10;99.90;;;;;;5004329;28;20030;-66
2023/08/25 09:44:01;;;;;;;5.28;2.95;;;23.90;99.90;;;;;;5013626;28;20484;-66
2023/08/25 09:46:33;;;;;;;5.10;2.47;;;23.80;99.90;;;;;;5001292;28;20041;-66
2023/08/25 09:49:04;;;;;;;7.13;3.23;;;23.70;99.90;;;;;;5007121;28;20106;-66
2023/08/25 09:51:40;;;;;;;5.90;3.17;;;23.50;99.90;;;;;;4995939;28;20255;-66
2023/08/25 09:54:16;;;;;;;5.53;3.08;;;23.20;99.90;;;;;;4993764;28;20030;-66
2023/08/25 09:56:48;;;;;;;3.85;3.05;;;23.00;99.90;;;;;;5003015;28;20018;-66
2023/08/25 09:59:15;;;;;;;5.38;3.25;;;23.00;99.90;;;;;;4999372;28;20034;-67
2023/08/25 10:01:45;;;;;;;5.47;3.13;;;23.00;99.90;;;;;;4991025;28;20030;-66
2023/08/25 10:04:11;;;;;;;6.15;3.70;;;22.90;99.90;;;;;;5001312;28;20483;-66
2023/08/25 10:06:38;;;;;;;4.82;3.80;;;22.70;99.90;;;;;;5001438;28;20117;-66
2023/08/25 10:09:05;;;;;;;6.15;3.88;;;22.60;99.90;;;;;;5005260;28;20036;-66
2023/08/25 10:11:40;;;;;;;7.50;3.67;;;22.30;99.90;;;;;;5004243;28;20025;-67
2023/08/25 10:14:08;;;;;;;9.00;3.72;;;22.10;99.90;;;;;;5000115;28;20620;-66
2023/08/25 10:16:51;;;;;;;6.43;4.80;;;22.00;99.90;;;;;;4998173;28;20025;-64
2023/08/25 10:19:26;;;;;;;10.05;4.45;;;22.30;99.90;;;;;;5003887;28;20065;-66
2023/08/25 10:21:54;;;;;;;7.63;4.25;;;22.40;99.90;;;;;;5002809;28;20042;-66
2023/08/25 10:24:25;;;;;;;6.13;4.22;;;22.50;99.90;;;;;;4999472;28;20033;-66
2023/08/25 10:26:52;;;;;;;7.57;3.70;;;22.60;99.90;;;;;;4991311;28;20022;-67
2023/08/25 10:29:23;;;;;;;5.22;3.78;;;22.80;99.90;;;;;;4999699;28;20119;-66
2023/08/25 10:31:51;;;;;;;9.18;3.83;;;22.80;99.90;;;;;;4994674;28;20065;-66
2023/08/25 10:34:44;;;;;;;5.90;4.22;;;22.70;99.90;;;;;;5004320;28;20495;-67
2023/08/25 10:37:11;;;;;;;5.78;3.95;;;22.30;99.90;;;;;;4998077;28;20125;-64
2023/08/25 10:39:48;;;;;;;11.73;4.25;;;22.00;99.90;;;;;;5004230;28;20765;-66
2023/08/25 10:42:34;;;;;;;7.05;4.32;;;22.00;99.90;;;;;;5000453;28;20029;-67
2023/08/25 10:45:09;;;;;;;5.95;4.22;;;22.00;99.90;;;;;;4991488;28;20065;-66
2023/08/25 10:47:45;;;;;;;11.00;4.07;;;21.90;99.90;;;;;;5003692;28;20080;-66
2023/08/25 10:50:11;;;;;;;9.40;4.45;;;21.90;99.90;;;;;;5001507;28;21112;-66
2023/08/25 10:52:44;;;;;;;6.70;4.35;;;21.90;99.90;;;;;;5002194;28;20064;-66
2023/08/25 10:55:25;;;;;;;11.55;4.55;;;21.80;99.90;;;;;;4997879;28;20056;-65
2023/08/25 10:57:51;;;;;;;8.38;4.78;;;21.70;99.90;;;;;;4998408;28;20037;-66
2023/08/25 11:00:25;;;;;;;6.78;5.20;;;21.70;99.90;;;;;;4995062;28;20499;-67
2023/08/25 11:02:51;;;;;;;8.23;4.45;;;21.70;99.90;;;;;;4992870;28;20092;-66
2023/08/25 11:05:31;;;;;;;7.72;5.03;;;21.70;99.90;;;;;;5002544;28;20038;-66
2023/08/25 11:08:17;;;;;;;8.13;4.50;;;21.60;99.90;;;;;;4997702;28;20033;-67
2023/08/25 11:10:42;;;;;;;12.05;4.75;;;21.60;99.90;;;;;;4998848;28;20049;-66
2023/08/25 11:13:08;;;;;;;9.70;5.22;;;21.50;99.90;;;;;;5004386;28;20034;-66
2023/08/25 11:15:40;;;;;;;12.30;5.78;;;21.40;99.90;;;;;;5015745;28;20041;-65
2023/08/25 11:18:06;;;;;;;9.80;5.53;;;21.20;99.90;;;;;;5004824;28;20030;-66
2023/08/25 11:20:31;;;;;;;8.88;5.82;;;21.20;99.90;;;;;;4999763;28;20096;-66
2023/08/25 11:22:58;;;;;;;9.93;5.70;;;21.20;99.90;;;;;;4999998;28;20610;-66
2023/08/25 11:25:28;;;;;;;12.15;5.82;;;21.10;99.90;;;;;;5002556;28;20083;-66
2023/08/25 11:27:54;;;;;;;9.48;5.85;;;21.10;99.90;;;;;;4991697;28;20037;-66
2023/08/25 11:30:21;;;;;;;8.50;5.85;;;21.00;99.90;;;;;;4996965;28;20030;-66
2023/08/25 11:32:47;;;;;;;10.40;6.97;;;20.80;99.90;;;;;;4996717;28;20173;-66
2023/08/25 11:35:13;;;;;;;9.18;6.45;;;20.70;99.90;;;;;;5003231;28;20046;-64
2023/08/25 11:37:39;;;;;;;12.65;7.75;;;20.60;99.90;;;;;;5002391;28;20379;-66
2023/08/25 11:40:12;;;;;;;32.17;28.45;;;20.60;99.90;;;;;;4998494;28;20064;-66
2023/08/25 11:42:39;;;;;;;14.65;11.70;;;20.50;99.90;;;;;;5002624;28;20038;-65
2023/08/25 11:45:09;;;;;;;12.23;7.75;;;20.50;99.90;;;;;;4995460;28;20034;-66
2023/08/25 11:47:35;;;;;;;15.40;8.82;;;20.40;99.90;;;;;;5000807;28;20546;-66
2023/08/25 11:50:03;;;;;;;10.52;7.22;;;20.40;99.90;;;;;;4997180;28;20034;-65
2023/08/25 11:52:29;;;;;;;9.85;7.55;;;20.40;99.90;;;;;;5001119;28;20079;-65
2023/08/25 11:54:54;;;;;;;10.55;7.68;;;20.50;99.90;;;;;;5005394;28;20029;-66
2023/08/25 11:57:20;;;;;;;15.15;8.73;;;20.50;99.90;;;;;;5003652;28;20033;-66
2023/08/25 11:59:46;;;;;;;20.65;12.43;;;20.50;99.90;;;;;;5004705;28;20026;-67
2023/08/25 12:02:16;;;;;;;49.38;27.90;;;20.50;99.90;;;;;;4997575;28;21263;-67
2023/08/25 12:04:55;;;;;;;79.25;56.33;;;20.60;99.90;;;;;;4996781;28;20049;-66
2023/08/25 12:07:25;;;;;;;14.77;8.50;;;20.60;99.90;;;;;;5003023;28;20026;-66
2023/08/25 12:09:55;;;;;;;13.63;7.90;;;20.50;99.90;;;;;;5006831;28;20037;-65
2023/08/25 12:12:21;;;;;;;10.02;6.15;;;20.50;99.90;;;;;;5008000;28;20021;-65
2023/08/25 12:14:51;;;;;;;8.05;5.93;;;20.50;99.90;;;;;;4999645;28;20187;-66
2023/08/25 12:17:27;;;;;;;7.97;5.57;;;20.40;99.90;;;;;;5003420;28;20033;-66
2023/08/25 12:19:54;;;;;;;10.15;5.68;;;20.40;99.90;;;;;;5000743;28;20424;-65
2023/08/25 12:22:20;;;;;;;11.63;10.43;;;20.60;99.90;;;;;;4997763;28;20491;-66
2023/08/25 12:24:46;;;;;;;13.73;8.35;;;20.90;99.90;;;;;;4999027;28;20038;-67
2023/08/25 12:27:12;;;;;;;8.07;4.90;;;21.20;99.90;;;;;;5001118;28;20025;-65
2023/08/25 12:29:38;;;;;;;6.25;4.22;;;21.30;99.90;;;;;;5006014;28;20503;-67
2023/08/25 12:32:04;;;;;;;9.15;4.88;;;21.40;99.90;;;;;;5003939;28;20044;-66
2023/08/25 12:34:30;;;;;;;6.55;3.90;;;21.30;99.90;;;;;;5001328;28;20100;-66
2023/08/25 12:36:56;;;;;;;13.05;4.28;;;21.40;99.90;;;;;;5002259;28;20635;-67
2023/08/25 12:39:23;;;;;;;5.88;4.65;;;21.30;99.90;;;;;;5003532;28;20113;-66
2023/08/25 12:41:48;;;;;;;6.20;3.65;;;21.30;99.90;;;;;;4996782;28;20034;-67
2023/08/25 12:44:14;;;;;;;7.03;3.90;;;21.30;99.90;;;;;;5000239;28;20071;-67